sensor_id;sensor_type;location;lat;lon;timestamp;pressure;altitude;pressure_sealevel;temperature;humidity
62881;BME280;48969;49.934;8.596;2023-08-17T00:01:42;100780.06;;;19.25;100.00
62881;BME280;48969;49.934;8.596;2023-08-17T00:04:08;100783.19;;;19.20;100.00
62881;BME280;48969;49.934;8.596;2023-08-17T00:06:33;100769.47;;;19.14;100.00
62881;BME280;48969;49.934;8.596;2023-08-17T00:08:58;100781.59;;;19.08;100.00
62881;BME280;48969;49.934;8.596;2023-08-17T00:11:24;100764.22;;;19.02;100.00
62881;BME280;48969;49.934;8.596;2023-08-17T00:13:49;100764.94;;;19.14;100.00
62881;BME280;48969;49.934;8.596;2023-08-17T00:16:15;100767.31;;;19.27;100.00
62881;BME280;48969;49.934;8.596;2023-08-17T00:18:40;100769.75;;;19.30;100.00
62881;BME280;48969;49.934;8.596;2023-08-17T00:21:06;100769.44;;;19.33;100.00
62881;BME280;48969;49.934;8.596;2023-08-17T00:23:31;100771.28;;;19.42;100.00
62881;BME280;48969;49.934;8.596;2023-08-17T00:25:56;100772.13;;;19.53;100.00
62881;BME280;48969;49.934;8.596;2023-08-17T00:28:21;100773.69;;;19.46;100.00
62881;BME280;48969;49.934;8.596;2023-08-17T00:30:47;100765.78;;;19.34;100.00
62881;BME280;48969;49.934;8.596;2023-08-17T00:33:12;100768.59;;;19.33;100.00
62881;BME280;48969;49.934;8.596;2023-08-17T00:35:37;100767.44;;;19.45;100.00
62881;BME280;48969;49.934;8.596;2023-08-17T00:38:03;100765.88;;;19.52;100.00
62881;BME280;48969;49.934;8.596;2023-08-17T00:40:28;100769.31;;;19.25;100.00
62881;BME280;48969;49.934;8.596;2023-08-17T00:42:53;100763.66;;;19.18;100.00
62881;BME280;48969;49.934;8.596;2023-08-17T00:45:19;100762.53;;;19.21;100.00
62881;BME280;48969;49.934;8.596;2023-08-17T00:47:44;100763.06;;;19.44;100.00
62881;BME280;48969;49.934;8.596;2023-08-17T00:50:11;100766.28;;;19.67;100.00
62881;BME280;48969;49.934;8.596;2023-08-17T00:52:37;100762.19;;;19.63;100.00
62881;BME280;48969;49.934;8.596;2023-08-17T00:55:03;100763.38;;;19.41;100.00
62881;BME280;48969;49.934;8.596;2023-08-17T00:57:31;100765.19;;;19.60;100.00
62881;BME280;48969;49.934;8.596;2023-08-17T00:59:57;100765.31;;;19.78;100.00
62881;BME280;48969;49.934;8.596;2023-08-17T01:02:23;100770.25;;;19.82;100.00
62881;BME280;48969;49.934;8.596;2023-08-17T01:04:49;100758.69;;;19.53;100.00
62881;BME280;48969;49.934;8.596;2023-08-17T01:07:15;100761.22;;;19.44;100.00
62881;BME280;48969;49.934;8.596;2023-08-17T01:09:40;100762.34;;;19.61;100.00
62881;BME280;48969;49.934;8.596;2023-08-17T01:12:29;100760.22;;;19.84;100.00
62881;BME280;48969;49.934;8.596;2023-08-17T01:15:24;100754.97;;;19.54;100.00
62881;BME280;48969;49.934;8.596;2023-08-17T01:20:33;100761.81;;;19.29;100.00
62881;BME280;48969;49.934;8.596;2023-08-17T01:23:08;100760.94;;;19.38;100.00
62881;BME280;48969;49.934;8.596;2023-08-17T01:25:34;100755.59;;;19.18;100.00
62881;BME280;48969;49.934;8.596;2023-08-17T01:28:02;100749.91;;;19.02;100.00
62881;BME280;48969;49.934;8.596;2023-08-17T01:30:27;100756.56;;;18.98;100.00
62881;BME280;48969;49.934;8.596;2023-08-17T01:32:58;100759.53;;;18.95;100.00
62881;BME280;48969;49.934;8.596;2023-08-17T01:37:58;100753.03;;;18.88;100.00
62881;BME280;48969;49.934;8.596;2023-08-17T01:40:25;100739.28;;;18.81;100.00
62881;BME280;48969;49.934;8.596;2023-08-17T01:42:52;100736.91;;;18.78;100.00
62881;BME280;48969;49.934;8.596;2023-08-17T01:45:18;100740.72;;;18.85;100.00
62881;BME280;48969;49.934;8.596;2023-08-17T01:47:43;100734.06;;;18.99;100.00
62881;BME280;48969;49.934;8.596;2023-08-17T01:50:09;100731.53;;;19.17;100.00
62881;BME280;48969;49.934;8.596;2023-08-17T01:52:34;100725.16;;;19.37;100.00
62881;BME280;48969;49.934;8.596;2023-08-17T01:55:00;100731.91;;;19.51;100.00
62881;BME280;48969;49.934;8.596;2023-08-17T01:57:25;100726.78;;;19.68;100.00
62881;BME280;48969;49.934;8.596;2023-08-17T01:59:51;100730.34;;;19.78;100.00
62881;BME280;48969;49.934;8.596;2023-08-17T02:02:16;100727.22;;;19.82;100.00
62881;BME280;48969;49.934;8.596;2023-08-17T02:04:42;100720.38;;;19.88;100.00
62881;BME280;48969;49.934;8.596;2023-08-17T02:07:07;100719.72;;;19.76;100.00
62881;BME280;48969;49.934;8.596;2023-08-17T02:09:33;100717.72;;;19.78;100.00
62881;BME280;48969;49.934;8.596;2023-08-17T02:11:58;100722.53;;;19.84;100.00
62881;BME280;48969;49.934;8.596;2023-08-17T02:14:23;100722.63;;;19.93;100.00
62881;BME280;48969;49.934;8.596;2023-08-17T02:16:48;100718.38;;;19.90;100.00
62881;BME280;48969;49.934;8.596;2023-08-17T02:19:14;100712.06;;;19.72;100.00
62881;BME280;48969;49.934;8.596;2023-08-17T02:21:39;100711.91;;;19.63;100.00
62881;BME280;48969;49.934;8.596;2023-08-17T02:24:05;100722.44;;;19.57;100.00
62881;BME280;48969;49.934;8.596;2023-08-17T02:26:30;100712.47;;;19.67;100.00
62881;BME280;48969;49.934;8.596;2023-08-17T02:28:55;100714.78;;;19.72;100.00
62881;BME280;48969;49.934;8.596;2023-08-17T02:31:21;100713.31;;;19.77;100.00
62881;BME280;48969;49.934;8.596;2023-08-17T02:33:46;100716.00;;;19.87;100.00
62881;BME280;48969;49.934;8.596;2023-08-17T02:36:11;100721.06;;;19.90;100.00
62881;BME280;48969;49.934;8.596;2023-08-17T02:38:36;100712.22;;;19.80;100.00
62881;BME280;48969;49.934;8.596;2023-08-17T02:41:02;100715.06;;;19.49;100.00
62881;BME280;48969;49.934;8.596;2023-08-17T02:43:27;100706.19;;;19.29;100.00
62881;BME280;48969;49.934;8.596;2023-08-17T02:45:53;100704.94;;;19.14;100.00
62881;BME280;48969;49.934;8.596;2023-08-17T02:48:18;100705.81;;;19.05;100.00
62881;BME280;48969;49.934;8.596;2023-08-17T02:50:43;100704.38;;;18.91;100.00
62881;BME280;48969;49.934;8.596;2023-08-17T02:53:09;100709.31;;;18.86;100.00
62881;BME280;48969;49.934;8.596;2023-08-17T02:55:34;100709.41;;;18.74;100.00
62881;BME280;48969;49.934;8.596;2023-08-17T02:57:59;100715.19;;;18.70;100.00
62881;BME280;48969;49.934;8.596;2023-08-17T03:00:25;100703.06;;;18.66;100.00
62881;BME280;48969;49.934;8.596;2023-08-17T03:02:50;100709.00;;;18.59;100.00
62881;BME280;48969;49.934;8.596;2023-08-17T03:05:15;100707.13;;;18.60;100.00
62881;BME280;48969;49.934;8.596;2023-08-17T03:07:40;100708.28;;;18.67;100.00
62881;BME280;48969;49.934;8.596;2023-08-17T03:10:06;100704.75;;;18.76;100.00
62881;BME280;48969;49.934;8.596;2023-08-17T03:12:31;100706.78;;;18.94;100.00
62881;BME280;48969;49.934;8.596;2023-08-17T03:14:57;100696.59;;;19.17;100.00
62881;BME280;48969;49.934;8.596;2023-08-17T03:17:22;100692.47;;;19.32;100.00
62881;BME280;48969;49.934;8.596;2023-08-17T03:19:47;100693.88;;;19.36;100.00
62881;BME280;48969;49.934;8.596;2023-08-17T03:22:13;100693.84;;;19.46;100.00
62881;BME280;48969;49.934;8.596;2023-08-17T03:24:38;100696.06;;;19.60;100.00
62881;BME280;48969;49.934;8.596;2023-08-17T03:27:03;100698.19;;;19.67;100.00
62881;BME280;48969;49.934;8.596;2023-08-17T03:29:29;100700.31;;;19.63;100.00
62881;BME280;48969;49.934;8.596;2023-08-17T03:31:54;100696.06;;;19.60;100.00
62881;BME280;48969;49.934;8.596;2023-08-17T03:34:20;100698.78;;;19.51;100.00
62881;BME280;48969;49.934;8.596;2023-08-17T03:36:45;100703.44;;;19.58;100.00
62881;BME280;48969;49.934;8.596;2023-08-17T03:39:10;100704.28;;;19.59;100.00
62881;BME280;48969;49.934;8.596;2023-08-17T03:41:36;100711.41;;;19.50;100.00
62881;BME280;48969;49.934;8.596;2023-08-17T03:44:02;100701.53;;;19.41;100.00
62881;BME280;48969;49.934;8.596;2023-08-17T03:46:29;100706.31;;;19.37;100.00
62881;BME280;48969;49.934;8.596;2023-08-17T03:48:54;100707.56;;;19.43;100.00
62881;BME280;48969;49.934;8.596;2023-08-17T03:51:19;100708.47;;;19.14;100.00
62881;BME280;48969;49.934;8.596;2023-08-17T03:53:44;100712.72;;;18.97;100.00
62881;BME280;48969;49.934;8.596;2023-08-17T03:56:09;100717.81;;;18.91;100.00
62881;BME280;48969;49.934;8.596;2023-08-17T03:58:35;100710.56;;;18.81;100.00
62881;BME280;48969;49.934;8.596;2023-08-17T04:01:00;100715.28;;;18.79;100.00
62881;BME280;48969;49.934;8.596;2023-08-17T04:03:26;100724.16;;;18.90;100.00
62881;BME280;48969;49.934;8.596;2023-08-17T04:05:52;100732.81;;;19.13;100.00
62881;BME280;48969;49.934;8.596;2023-08-17T04:08:17;100722.19;;;19.21;100.00
62881;BME280;48969;49.934;8.596;2023-08-17T04:10:42;100724.28;;;19.27;100.00
62881;BME280;48969;49.934;8.596;2023-08-17T04:13:08;100727.53;;;19.40;100.00
62881;BME280;48969;49.934;8.596;2023-08-17T04:15:33;100739.28;;;19.49;100.00
62881;BME280;48969;49.934;8.596;2023-08-17T04:17:58;100735.63;;;19.50;100.00
62881;BME280;48969;49.934;8.596;2023-08-17T04:20:23;100737.16;;;19.53;100.00
62881;BME280;48969;49.934;8.596;2023-08-17T04:22:50;100733.75;;;19.51;100.00
62881;BME280;48969;49.934;8.596;2023-08-17T04:25:15;100729.94;;;19.53;100.00
62881;BME280;48969;49.934;8.596;2023-08-17T04:27:41;100738.97;;;19.52;100.00
62881;BME280;48969;49.934;8.596;2023-08-17T04:30:07;100726.69;;;19.40;100.00
62881;BME280;48969;49.934;8.596;2023-08-17T04:32:32;100726.59;;;19.32;100.00
62881;BME280;48969;49.934;8.596;2023-08-17T04:34:57;100736.03;;;19.07;100.00
62881;BME280;48969;49.934;8.596;2023-08-17T04:37:22;100735.50;;;18.93;100.00
62881;BME280;48969;49.934;8.596;2023-08-17T04:39:48;100738.53;;;18.69;100.00
62881;BME280;48969;49.934;8.596;2023-08-17T04:42:14;100747.97;;;18.54;100.00
62881;BME280;48969;49.934;8.596;2023-08-17T04:44:39;100749.25;;;18.50;100.00
62881;BME280;48969;49.934;8.596;2023-08-17T04:47:05;100755.19;;;18.53;100.00
62881;BME280;48969;49.934;8.596;2023-08-17T04:49:30;100760.97;;;18.58;100.00
62881;BME280;48969;49.934;8.596;2023-08-17T04:51:56;100762.28;;;18.64;100.00
62881;BME280;48969;49.934;8.596;2023-08-17T04:54:21;100763.13;;;18.65;100.00
62881;BME280;48969;49.934;8.596;2023-08-17T04:56:46;100757.38;;;18.79;100.00
62881;BME280;48969;49.934;8.596;2023-08-17T04:59:11;100761.66;;;19.01;100.00
62881;BME280;48969;49.934;8.596;2023-08-17T05:01:37;100759.13;;;19.19;100.00
62881;BME280;48969;49.934;8.596;2023-08-17T05:04:03;100764.22;;;19.32;100.00
62881;BME280;48969;49.934;8.596;2023-08-17T05:06:29;100765.19;;;19.40;100.00
62881;BME280;48969;49.934;8.596;2023-08-17T05:08:54;100761.63;;;19.50;100.00
62881;BME280;48969;49.934;8.596;2023-08-17T05:11:19;100764.91;;;19.34;100.00
62881;BME280;48969;49.934;8.596;2023-08-17T05:13:44;100758.25;;;19.09;100.00
62881;BME280;48969;49.934;8.596;2023-08-17T05:16:10;100766.06;;;19.12;100.00
62881;BME280;48969;49.934;8.596;2023-08-17T05:18:35;100762.22;;;19.24;100.00
62881;BME280;48969;49.934;8.596;2023-08-17T05:21:00;100760.09;;;19.37;100.00
62881;BME280;48969;49.934;8.596;2023-08-17T05:23:26;100766.91;;;19.41;100.00
62881;BME280;48969;49.934;8.596;2023-08-17T05:25:51;100774.25;;;19.49;100.00
62881;BME280;48969;49.934;8.596;2023-08-17T05:28:16;100764.91;;;19.53;100.00
62881;BME280;48969;49.934;8.596;2023-08-17T05:30:42;100753.44;;;19.51;100.00
62881;BME280;48969;49.934;8.596;2023-08-17T05:33:07;100762.94;;;19.46;100.00
62881;BME280;48969;49.934;8.596;2023-08-17T05:35:33;100764.75;;;19.45;100.00
62881;BME280;48969;49.934;8.596;2023-08-17T05:37:58;100772.41;;;19.50;100.00
62881;BME280;48969;49.934;8.596;2023-08-17T05:40:23;100767.44;;;19.64;100.00
62881;BME280;48969;49.934;8.596;2023-08-17T05:42:48;100770.25;;;19.73;100.00
62881;BME280;48969;49.934;8.596;2023-08-17T05:45:14;100767.72;;;19.81;100.00
62881;BME280;48969;49.934;8.596;2023-08-17T05:47:39;100767.13;;;19.68;100.00
62881;BME280;48969;49.934;8.596;2023-08-17T05:50:05;100770.00;;;19.76;100.00
62881;BME280;48969;49.934;8.596;2023-08-17T05:52:31;100773.09;;;19.81;100.00
62881;BME280;48969;49.934;8.596;2023-08-17T05:54:57;100769.81;;;19.77;100.00
62881;BME280;48969;49.934;8.596;2023-08-17T05:57:22;100778.59;;;19.79;100.00
62881;BME280;48969;49.934;8.596;2023-08-17T05:59:48;100772.69;;;19.66;100.00
62881;BME280;48969;49.934;8.596;2023-08-17T06:02:13;100787.28;;;19.73;100.00
62881;BME280;48969;49.934;8.596;2023-08-17T06:04:38;100802.25;;;19.85;100.00
62881;BME280;48969;49.934;8.596;2023-08-17T06:07:03;100797.44;;;19.79;100.00
62881;BME280;48969;49.934;8.596;2023-08-17T06:09:29;100800.03;;;19.71;100.00
62881;BME280;48969;49.934;8.596;2023-08-17T06:11:54;100790.78;;;19.54;100.00
62881;BME280;48969;49.934;8.596;2023-08-17T06:14:19;100778.06;;;19.17;100.00
62881;BME280;48969;49.934;8.596;2023-08-17T06:16:45;100781.59;;;19.18;100.00
62881;BME280;48969;49.934;8.596;2023-08-17T06:19:10;100774.69;;;19.15;100.00
62881;BME280;48969;49.934;8.596;2023-08-17T06:21:35;100777.50;;;19.04;100.00
62881;BME280;48969;49.934;8.596;2023-08-17T06:24:00;100779.22;;;19.15;100.00
62881;BME280;48969;49.934;8.596;2023-08-17T06:26:26;100784.44;;;19.26;100.00
62881;BME280;48969;49.934;8.596;2023-08-17T06:28:51;100786.28;;;19.26;100.00
62881;BME280;48969;49.934;8.596;2023-08-17T06:31:16;100794.94;;;19.39;100.00
62881;BME280;48969;49.934;8.596;2023-08-17T06:33:42;100791.94;;;19.52;100.00
62881;BME280;48969;49.934;8.596;2023-08-17T06:36:07;100794.34;;;19.55;100.00
62881;BME280;48969;49.934;8.596;2023-08-17T06:38:32;100787.09;;;19.65;100.00
62881;BME280;48969;49.934;8.596;2023-08-17T06:40:57;100793.31;;;19.65;100.00
62881;BME280;48969;49.934;8.596;2023-08-17T06:43:23;100784.13;;;19.68;100.00
62881;BME280;48969;49.934;8.596;2023-08-17T06:45:48;100784.16;;;19.49;100.00
62881;BME280;48969;49.934;8.596;2023-08-17T06:48:13;100786.72;;;19.31;100.00
62881;BME280;48969;49.934;8.596;2023-08-17T06:50:39;100793.94;;;19.20;100.00
62881;BME280;48969;49.934;8.596;2023-08-17T06:53:04;100788.69;;;19.19;100.00
62881;BME280;48969;49.934;8.596;2023-08-17T06:55:30;100788.41;;;19.02;100.00
62881;BME280;48969;49.934;8.596;2023-08-17T06:57:55;100791.81;;;19.05;100.00
62881;BME280;48969;49.934;8.596;2023-08-17T07:00:21;100786.97;;;19.08;100.00
62881;BME280;48969;49.934;8.596;2023-08-17T07:02:47;100782.31;;;19.20;100.00
62881;BME280;48969;49.934;8.596;2023-08-17T07:05:14;100783.19;;;19.30;100.00
62881;BME280;48969;49.934;8.596;2023-08-17T07:07:40;100783.47;;;19.37;100.00
62881;BME280;48969;49.934;8.596;2023-08-17T07:10:05;100789.38;;;19.40;100.00
62881;BME280;48969;49.934;8.596;2023-08-17T07:12:32;100791.09;;;19.41;100.00
62881;BME280;48969;49.934;8.596;2023-08-17T07:14:57;100795.78;;;19.30;100.00
62881;BME280;48969;49.934;8.596;2023-08-17T07:17:22;100803.81;;;19.20;100.00
62881;BME280;48969;49.934;8.596;2023-08-17T07:19:48;100804.41;;;19.23;100.00
62881;BME280;48969;49.934;8.596;2023-08-17T07:22:13;100801.16;;;19.30;100.00
62881;BME280;48969;49.934;8.596;2023-08-17T07:24:38;100796.06;;;19.36;100.00
62881;BME280;48969;49.934;8.596;2023-08-17T07:27:05;100803.09;;;19.18;100.00
62881;BME280;48969;49.934;8.596;2023-08-17T07:29:30;100805.38;;;19.13;100.00
62881;BME280;48969;49.934;8.596;2023-08-17T07:31:55;100797.06;;;19.16;100.00
62881;BME280;48969;49.934;8.596;2023-08-17T07:34:23;100798.44;;;19.20;100.00
62881;BME280;48969;49.934;8.596;2023-08-17T07:36:49;100804.13;;;19.07;100.00
62881;BME280;48969;49.934;8.596;2023-08-17T07:39:14;100799.88;;;19.05;100.00
62881;BME280;48969;49.934;8.596;2023-08-17T07:41:42;100810.22;;;19.09;100.00
62881;BME280;48969;49.934;8.596;2023-08-17T07:44:07;100817.69;;;19.06;100.00
62881;BME280;48969;49.934;8.596;2023-08-17T07:46:33;100816.13;;;19.13;100.00
62881;BME280;48969;49.934;8.596;2023-08-17T07:48:58;100825.31;;;19.00;100.00
62881;BME280;48969;49.934;8.596;2023-08-17T07:51:23;100819.66;;;19.04;100.00
62881;BME280;48969;49.934;8.596;2023-08-17T07:53:49;100823.22;;;19.14;100.00
62881;BME280;48969;49.934;8.596;2023-08-17T07:56:14;100810.22;;;19.09;100.00
62881;BME280;48969;49.934;8.596;2023-08-17T07:58:39;100802.28;;;19.17;100.00
62881;BME280;48969;49.934;8.596;2023-08-17T08:01:05;100801.28;;;19.38;100.00
62881;BME280;48969;49.934;8.596;2023-08-17T08:03:30;100801.28;;;19.48;100.00
62881;BME280;48969;49.934;8.596;2023-08-17T08:05:56;100800.72;;;19.44;100.00
62881;BME280;48969;49.934;8.596;2023-08-17T08:08:21;100807.25;;;19.32;100.00
62881;BME280;48969;49.934;8.596;2023-08-17T08:10:46;100817.16;;;19.41;100.00
62881;BME280;48969;49.934;8.596;2023-08-17T08:13:11;100811.19;;;19.37;100.00
62881;BME280;48969;49.934;8.596;2023-08-17T08:15:37;100808.50;;;19.28;100.00
62881;BME280;48969;49.934;8.596;2023-08-17T08:18:02;100801.16;;;19.30;100.00
62881;BME280;48969;49.934;8.596;2023-08-17T08:20:28;100806.22;;;19.42;100.00
62881;BME280;48969;49.934;8.596;2023-08-17T08:22:54;100815.03;;;19.35;100.00
62881;BME280;48969;49.934;8.596;2023-08-17T08:25:19;100814.59;;;19.39;100.00
62881;BME280;48969;49.934;8.596;2023-08-17T08:27:44;100813.03;;;19.56;100.00
62881;BME280;48969;49.934;8.596;2023-08-17T08:30:10;100808.34;;;19.58;100.00
62881;BME280;48969;49.934;8.596;2023-08-17T08:32:35;100808.50;;;19.57;100.00
62881;BME280;48969;49.934;8.596;2023-08-17T08:35:01;100803.38;;;19.63;100.00
62881;BME280;48969;49.934;8.596;2023-08-17T08:37:27;100800.00;;;19.81;100.00
62881;BME280;48969;49.934;8.596;2023-08-17T08:39:53;100797.16;;;19.82;100.00
62881;BME280;48969;49.934;8.596;2023-08-17T08:42:21;100800.44;;;19.76;100.00
62881;BME280;48969;49.934;8.596;2023-08-17T08:44:47;100796.59;;;19.79;100.00
62881;BME280;48969;49.934;8.596;2023-08-17T08:47:13;100796.75;;;19.77;100.00
62881;BME280;48969;49.934;8.596;2023-08-17T08:49:50;100809.91;;;19.80;100.00
62881;BME280;48969;49.934;8.596;2023-08-17T08:52:23;100815.16;;;19.82;100.00
62881;BME280;48969;49.934;8.596;2023-08-17T08:54:50;100828.47;;;19.83;100.00
62881;BME280;48969;49.934;8.596;2023-08-17T08:57:19;100820.22;;;19.95;100.00
62881;BME280;48969;49.934;8.596;2023-08-17T08:59:45;100817.00;;;19.81;100.00
62881;BME280;48969;49.934;8.596;2023-08-17T09:02:15;100819.09;;;19.68;100.00
62881;BME280;48969;49.934;8.596;2023-08-17T09:04:43;100821.78;;;19.68;100.00
62881;BME280;48969;49.934;8.596;2023-08-17T09:07:11;100819.69;;;19.72;100.00
62881;BME280;48969;49.934;8.596;2023-08-17T09:09:37;100812.47;;;19.72;100.00
62881;BME280;48969;49.934;8.596;2023-08-17T09:12:07;100810.72;;;19.91;100.00
62881;BME280;48969;49.934;8.596;2023-08-17T09:14:32;100809.03;;;19.99;100.00
62881;BME280;48969;49.934;8.596;2023-08-17T09:17:00;100803.09;;;19.96;100.00
62881;BME280;48969;49.934;8.596;2023-08-17T09:19:26;100805.88;;;20.04;100.00
62881;BME280;48969;49.934;8.596;2023-08-17T09:21:51;100798.78;;;20.13;100.00
62881;BME280;48969;49.934;8.596;2023-08-17T09:24:17;100795.50;;;20.19;100.00
62881;BME280;48969;49.934;8.596;2023-08-17T09:26:43;100800.91;;;20.09;100.00
62881;BME280;48969;49.934;8.596;2023-08-17T09:29:18;100801.03;;;20.17;100.00
62881;BME280;48969;49.934;8.596;2023-08-17T09:31:44;100804.25;;;20.31;100.00
62881;BME280;48969;49.934;8.596;2023-08-17T09:34:09;100801.50;;;20.40;100.00
62881;BME280;48969;49.934;8.596;2023-08-17T09:36:35;100788.84;;;20.51;100.00
62881;BME280;48969;49.934;8.596;2023-08-17T09:39:04;100783.28;;;20.52;100.00
62881;BME280;48969;49.934;8.596;2023-08-17T09:41:30;100781.16;;;20.28;100.00
62881;BME280;48969;49.934;8.596;2023-08-17T09:43:55;100785.03;;;20.43;100.00
62881;BME280;48969;49.934;8.596;2023-08-17T09:46:21;100778.47;;;20.56;100.00
62881;BME280;48969;49.934;8.596;2023-08-17T09:48:47;100781.75;;;20.50;100.00
62881;BME280;48969;49.934;8.596;2023-08-17T09:51:16;100788.06;;;20.68;100.00
62881;BME280;48969;49.934;8.596;2023-08-17T09:53:41;100782.09;;;20.74;100.00
62881;BME280;48969;49.934;8.596;2023-08-17T09:56:07;100777.00;;;20.71;100.00
62881;BME280;48969;49.934;8.596;2023-08-17T09:58:35;100771.06;;;20.67;100.00
62881;BME280;48969;49.934;8.596;2023-08-17T10:01:03;100779.34;;;20.56;100.00
62881;BME280;48969;49.934;8.596;2023-08-17T10:03:34;100774.44;;;20.70;100.00
62881;BME280;48969;49.934;8.596;2023-08-17T10:06:04;100780.31;;;20.83;100.00
62881;BME280;48969;49.934;8.596;2023-08-17T10:08:31;100782.38;;;20.89;100.00
62881;BME280;48969;49.934;8.596;2023-08-17T10:10:59;100776.16;;;20.88;100.00
62881;BME280;48969;49.934;8.596;2023-08-17T10:13:34;100769.34;;;20.94;100.00
62881;BME280;48969;49.934;8.596;2023-08-17T10:16:11;100772.50;;;21.07;100.00
62881;BME280;48969;49.934;8.596;2023-08-17T10:18:45;100780.13;;;21.12;100.00
62881;BME280;48969;49.934;8.596;2023-08-17T10:21:16;100776.56;;;21.12;100.00
62881;BME280;48969;49.934;8.596;2023-08-17T10:23:44;100785.44;;;21.22;100.00
62881;BME280;48969;49.934;8.596;2023-08-17T10:26:11;100780.72;;;21.24;100.00
62881;BME280;48969;49.934;8.596;2023-08-17T10:28:37;100783.44;;;21.24;100.00
62881;BME280;48969;49.934;8.596;2023-08-17T10:31:03;100780.19;;;21.38;100.00
62881;BME280;48969;49.934;8.596;2023-08-17T10:33:29;100783.97;;;21.45;100.00
62881;BME280;48969;49.934;8.596;2023-08-17T10:35:55;100774.09;;;21.54;100.00
62881;BME280;48969;49.934;8.596;2023-08-17T10:38:21;100766.25;;;21.69;100.00
62881;BME280;48969;49.934;8.596;2023-08-17T10:41:07;100764.53;;;21.86;100.00
62881;BME280;48969;49.934;8.596;2023-08-17T10:43:33;100759.03;;;21.96;100.00
62881;BME280;48969;49.934;8.596;2023-08-17T10:46:14;100753.41;;;22.15;100.00
62881;BME280;48969;49.934;8.596;2023-08-17T10:48:43;100756.75;;;22.09;100.00
62881;BME280;48969;49.934;8.596;2023-08-17T10:51:08;100756.34;;;22.22;100.00
62881;BME280;48969;49.934;8.596;2023-08-17T10:53:38;100763.28;;;22.24;100.00
62881;BME280;48969;49.934;8.596;2023-08-17T10:56:11;100760.78;;;22.31;100.00
62881;BME280;48969;49.934;8.596;2023-08-17T10:58:37;100751.59;;;22.58;100.00
62881;BME280;48969;49.934;8.596;2023-08-17T11:01:02;100753.25;;;22.59;100.00
62881;BME280;48969;49.934;8.596;2023-08-17T11:03:28;100755.81;;;22.61;100.00
62881;BME280;48969;49.934;8.596;2023-08-17T11:05:55;100751.59;;;22.66;100.00
62881;BME280;48969;49.934;8.596;2023-08-17T11:08:34;100755.66;;;22.70;100.00
62881;BME280;48969;49.934;8.596;2023-08-17T11:11:07;100749.41;;;22.78;100.00
62881;BME280;48969;49.934;8.596;2023-08-17T11:13:36;100762.28;;;22.84;100.00
62881;BME280;48969;49.934;8.596;2023-08-17T11:16:03;100759.13;;;23.05;100.00
62881;BME280;48969;49.934;8.596;2023-08-17T11:18:29;100760.84;;;23.14;100.00
62881;BME280;48969;49.934;8.596;2023-08-17T11:20:55;100754.06;;;23.10;100.00
62881;BME280;48969;49.934;8.596;2023-08-17T11:23:21;100748.00;;;23.25;100.00
62881;BME280;48969;49.934;8.596;2023-08-17T11:25:47;100734.97;;;23.12;100.00
62881;BME280;48969;49.934;8.596;2023-08-17T11:28:13;100743.94;;;23.04;100.00
62881;BME280;48969;49.934;8.596;2023-08-17T11:30:41;100752.19;;;23.03;100.00
62881;BME280;48969;49.934;8.596;2023-08-17T11:33:07;100745.63;;;23.13;100.00
62881;BME280;48969;49.934;8.596;2023-08-17T11:35:33;100735.16;;;23.27;100.00
62881;BME280;48969;49.934;8.596;2023-08-17T11:37:59;100727.03;;;23.18;100.00
62881;BME280;48969;49.934;8.596;2023-08-17T11:40:25;100733.63;;;23.24;100.00
62881;BME280;48969;49.934;8.596;2023-08-17T11:42:51;100728.22;;;23.24;100.00
62881;BME280;48969;49.934;8.596;2023-08-17T11:45:17;100711.97;;;23.32;100.00
62881;BME280;48969;49.934;8.596;2023-08-17T11:47:43;100717.06;;;23.27;100.00
62881;BME280;48969;49.934;8.596;2023-08-17T11:50:10;100705.72;;;23.40;100.00
62881;BME280;48969;49.934;8.596;2023-08-17T11:52:36;100709.28;;;23.41;100.00
62881;BME280;48969;49.934;8.596;2023-08-17T11:55:06;100706.22;;;23.35;100.00
62881;BME280;48969;49.934;8.596;2023-08-17T11:57:32;100708.09;;;23.27;100.00
62881;BME280;48969;49.934;8.596;2023-08-17T11:59:59;100726.53;;;23.23;100.00
62881;BME280;48969;49.934;8.596;2023-08-17T12:02:25;100704.50;;;23.59;100.00
62881;BME280;48969;49.934;8.596;2023-08-17T12:04:51;100707.72;;;23.54;100.00
62881;BME280;48969;49.934;8.596;2023-08-17T12:07:17;100707.53;;;23.72;100.00
62881;BME280;48969;49.934;8.596;2023-08-17T12:09:43;100722.94;;;23.64;100.00
62881;BME280;48969;49.934;8.596;2023-08-17T12:12:09;100711.06;;;23.73;100.00
62881;BME280;48969;49.934;8.596;2023-08-17T12:14:35;100719.72;;;23.76;100.00
62881;BME280;48969;49.934;8.596;2023-08-17T12:17:00;100719.38;;;23.79;100.00
62881;BME280;48969;49.934;8.596;2023-08-17T12:19:25;100718.72;;;23.77;100.00
62881;BME280;48969;49.934;8.596;2023-08-17T12:21:51;100713.63;;;23.66;100.00
62881;BME280;48969;49.934;8.596;2023-08-17T12:24:16;100718.53;;;23.63;100.00
62881;BME280;48969;49.934;8.596;2023-08-17T12:26:45;100728.72;;;23.61;100.00
62881;BME280;48969;49.934;8.596;2023-08-17T12:29:11;100733.59;;;23.65;100.00
62881;BME280;48969;49.934;8.596;2023-08-17T12:31:36;100726.81;;;23.69;100.00
62881;BME280;48969;49.934;8.596;2023-08-17T12:34:02;100719.88;;;23.67;100.00
62881;BME280;48969;49.934;8.596;2023-08-17T12:36:28;100724.63;;;23.65;100.00
62881;BME280;48969;49.934;8.596;2023-08-17T12:38:54;100726.69;;;23.54;100.00
62881;BME280;48969;49.934;8.596;2023-08-17T12:41:20;100737.19;;;23.49;100.00